createdAt,value
2019-03-25T00:04:21.351Z,5.15
2019-03-25T00:09:24.247Z,5.32
2019-03-25T00:14:27.140Z,5.56
2019-03-25T00:19:31.257Z,5.75
2019-03-25T00:24:38.766Z,5.92
2019-03-25T00:29:38.675Z,6.06
2019-03-25T00:34:40.976Z,6.18
2019-03-25T00:39:44.074Z,6.29
2019-03-25T00:44:46.419Z,6.41
2019-03-25T00:49:48.773Z,6.61
2019-03-25T00:54:51.287Z,6.86
2019-03-25T00:59:53.719Z,6.93
2019-03-25T01:04:56.569Z,7.02
2019-03-25T01:09:58.794Z,7.12
2019-03-25T01:15:04.563Z,7.19
2019-03-25T01:20:07.230Z,7.30
2019-03-25T01:25:09.468Z,7.36
2019-03-25T01:30:13.924Z,7.37
2019-03-25T01:35:16.965Z,7.39
2019-03-25T01:40:19.262Z,7.43
2019-03-25T01:45:21.879Z,7.51
2019-03-25T01:50:24.821Z,7.53
2019-03-25T01:55:27.037Z,7.59
2019-03-25T02:00:29.232Z,7.61
2019-03-25T02:05:31.439Z,7.65
2019-03-25T02:10:33.790Z,7.68
2019-03-25T02:15:36.113Z,7.67
2019-03-25T02:20:38.509Z,7.71
2019-03-25T02:25:40.840Z,7.74
2019-03-25T02:30:43.243Z,7.79
2019-03-25T02:35:46.434Z,7.79
2019-03-25T02:40:48.601Z,6.64
2019-03-25T02:45:50.956Z,6.35
2019-03-25T02:50:53.088Z,6.24
2019-03-25T02:55:55.376Z,6.13
2019-03-25T03:00:57.724Z,6.17
2019-03-25T03:06:00.063Z,6.24
2019-03-25T03:11:02.285Z,6.09
2019-03-25T03:16:04.484Z,5.84
2019-03-25T03:21:06.668Z,5.67
2019-03-25T03:26:09.013Z,5.54
2019-03-25T03:31:12.399Z,5.59
2019-03-25T03:36:15.023Z,5.63
2019-03-25T03:41:18.675Z,5.59
2019-03-25T03:46:21.349Z,5.52
2019-03-25T03:51:23.958Z,5.53
2019-03-25T03:56:26.273Z,5.48
2019-03-25T04:01:28.587Z,5.43
2019-03-25T04:06:30.942Z,5.34
2019-03-25T04:11:33.636Z,5.22
2019-03-25T04:16:35.983Z,5.25
2019-03-25T04:21:38.684Z,5.26
2019-03-25T04:26:42.055Z,5.34
2019-03-25T04:31:44.339Z,5.35
2019-03-25T04:36:46.693Z,5.41
2019-03-25T04:41:48.919Z,5.42
2019-03-25T04:46:51.076Z,5.36
2019-03-25T04:51:53.632Z,5.31
2019-03-25T04:56:55.881Z,5.27
2019-03-25T05:01:58.036Z,5.26
2019-03-25T05:07:00.257Z,5.26
2019-03-25T05:12:02.413Z,5.27
2019-03-25T05:17:04.910Z,5.26
2019-03-25T05:22:07.147Z,5.31
2019-03-25T05:27:10.088Z,5.23
2019-03-25T05:32:12.274Z,5.18
2019-03-25T05:37:14.457Z,5.15
2019-03-25T05:42:17.550Z,5.14
2019-03-25T05:47:19.713Z,5.18
2019-03-25T05:52:22.015Z,5.23
2019-03-25T05:57:24.198Z,5.44
2019-03-25T06:02:26.818Z,5.48
2019-03-25T06:07:28.977Z,5.63
2019-03-25T06:12:31.270Z,5.64
2019-03-25T06:17:33.467Z,5.91
2019-03-25T06:22:35.672Z,5.96
2019-03-25T06:27:37.943Z,6.03
2019-03-25T06:32:40.537Z,6.13
2019-03-25T06:37:48.696Z,6.08
2019-03-25T06:42:50.887Z,5.60
2019-03-25T06:47:53.778Z,5.61
2019-03-25T06:52:56.081Z,5.79
2019-03-25T06:57:58.413Z,5.90
2019-03-25T07:03:00.699Z,5.99
2019-03-25T07:08:02.931Z,6.11
2019-03-25T07:13:05.164Z,6.15
2019-03-25T07:18:07.403Z,6.23
2019-03-25T07:23:10.068Z,6.31
2019-03-25T07:28:12.225Z,6.58
2019-03-25T07:33:14.671Z,6.80
2019-03-25T07:38:16.830Z,6.99
2019-03-25T07:43:19.992Z,7.18
2019-03-25T07:48:22.246Z,7.27
2019-03-25T07:53:24.411Z,7.31
2019-03-25T07:58:29.327Z,7.44
2019-03-25T08:03:31.455Z,7.70
2019-03-25T08:08:34.105Z,7.69
2019-03-25T08:13:36.374Z,7.81
2019-03-25T08:18:38.634Z,7.70
2019-03-25T08:23:41.081Z,7.61
2019-03-25T08:28:43.213Z,7.51
2019-03-25T08:33:46.387Z,7.54
2019-03-25T08:38:48.563Z,7.46
2019-03-25T08:43:50.771Z,7.55
2019-03-25T08:48:53.046Z,7.72
2019-03-25T08:53:55.212Z,8.30
2019-03-25T08:58:57.358Z,8.45
2019-03-25T09:03:59.486Z,8.30
2019-03-25T09:09:01.874Z,8.49
2019-03-25T09:14:06.003Z,8.89
2019-03-25T09:19:08.238Z,8.79
2019-03-25T09:24:10.511Z,9.04
2019-03-25T09:29:12.660Z,9.01
2019-03-25T09:34:14.872Z,9.12
2019-03-25T09:39:17.314Z,9.31
2019-03-25T09:44:19.965Z,9.28
2019-03-25T09:49:22.154Z,9.25
2019-03-25T09:54:26.605Z,9.92
2019-03-25T09:59:30.460Z,9.61
2019-03-25T10:04:33.611Z,9.66
2019-03-25T10:09:36.226Z,9.78
2019-03-25T10:14:38.838Z,9.60
2019-03-25T10:19:41.073Z,9.93
2019-03-25T10:24:43.231Z,9.77
2019-03-25T10:29:45.428Z,9.61
2019-03-25T10:34:47.698Z,9.76
2019-03-25T10:39:49.937Z,10.09
2019-03-25T10:44:54.224Z,10.04
2019-03-25T10:49:56.346Z,8.98
2019-03-25T11:00:01.106Z,8.58
2019-03-25T11:05:03.722Z,8.53
2019-03-25T11:10:05.995Z,8.70
2019-03-25T11:15:09.348Z,9.17
2019-03-25T11:20:11.630Z,9.93
2019-03-25T11:25:13.890Z,10.05
2019-03-25T11:30:23.227Z,9.99
2019-03-25T11:35:25.480Z,10.07
2019-03-25T11:40:27.682Z,10.14
2019-03-25T11:45:30.022Z,8.84
2019-03-25T11:50:32.244Z,8.54
2019-03-25T11:55:34.529Z,8.28
2019-03-25T12:00:36.840Z,9.04
2019-03-25T12:05:40.723Z,9.41
2019-03-25T12:10:43.640Z,9.54
2019-03-25T12:15:45.952Z,9.64
2019-03-25T12:20:48.680Z,9.70
2019-03-25T12:25:51.277Z,9.51
2019-03-25T12:30:53.419Z,9.27
2019-03-25T12:35:55.706Z,9.55
2019-03-25T12:40:58.112Z,10.26
2019-03-25T12:46:01.052Z,10.62
2019-03-25T12:51:03.391Z,10.64
2019-03-25T12:56:05.664Z,10.52
2019-03-25T13:01:07.815Z,10.46
2019-03-25T13:06:09.934Z,10.29
2019-03-25T13:11:12.320Z,10.39
2019-03-25T13:16:14.626Z,10.21
2019-03-25T13:21:16.925Z,10.62
2019-03-25T13:26:19.132Z,10.75
2019-03-25T13:31:21.398Z,10.62
2019-03-25T13:36:23.727Z,10.15
2019-03-25T13:41:26.346Z,10.13
2019-03-25T13:46:28.649Z,10.27
2019-03-25T13:51:31.312Z,10.38
2019-03-25T13:56:33.510Z,10.35
2019-03-25T14:01:35.782Z,10.38
2019-03-25T14:06:38.524Z,10.17
2019-03-25T14:11:41.531Z,10.22
2019-03-25T14:16:43.783Z,10.38
2019-03-25T14:21:48.718Z,10.23
2019-03-25T14:26:53.158Z,10.19
2019-03-25T14:31:55.553Z,10.27
2019-03-25T14:36:58.201Z,10.25
2019-03-25T14:42:00.650Z,10.25
2019-03-25T14:47:03.011Z,10.12
2019-03-25T14:52:05.348Z,10.12
2019-03-25T14:57:09.546Z,10.25
2019-03-25T15:02:12.020Z,10.07
2019-03-25T15:07:14.931Z,9.87
2019-03-25T15:12:17.223Z,9.73
2019-03-25T15:17:20.527Z,9.63
2019-03-25T15:22:23.166Z,9.55
2019-03-25T15:27:25.755Z,9.81
2019-03-25T15:32:29.233Z,9.66
2019-03-25T15:37:31.841Z,9.81
2019-03-25T15:42:34.711Z,9.79
2019-03-25T15:47:37.538Z,9.70
2019-03-25T15:52:39.946Z,9.64
2019-03-25T15:57:42.664Z,9.47
2019-03-25T16:02:45.382Z,9.68
2019-03-25T16:07:48.682Z,9.99
2019-03-25T16:12:52.084Z,10.17
2019-03-25T16:17:55.586Z,10.13
2019-03-25T16:22:58.056Z,10.37
2019-03-25T16:28:00.462Z,10.00
2019-03-25T16:33:02.889Z,9.56
2019-03-25T16:38:05.253Z,9.73
2019-03-25T16:43:08.331Z,9.90
2019-03-25T16:48:11.325Z,9.94
2019-03-25T16:53:13.635Z,9.70
2019-03-25T16:58:15.905Z,9.60
2019-03-25T17:03:18.155Z,9.69
2019-03-25T17:08:20.452Z,9.86
2019-03-25T17:13:22.878Z,9.81
2019-03-25T17:18:25.129Z,9.51
2019-03-25T17:23:30.748Z,9.32
2019-03-25T17:28:34.591Z,9.07
2019-03-25T17:33:39.684Z,9.01
2019-03-25T17:38:42.050Z,8.84
2019-03-25T17:43:44.583Z,8.78
2019-03-25T17:48:46.748Z,8.71
2019-03-25T17:53:52.452Z,8.66
2019-03-25T17:58:54.784Z,8.61
2019-03-25T18:03:57.698Z,8.47
2019-03-25T18:09:00.137Z,8.40
2019-03-25T18:14:02.639Z,8.21
2019-03-25T18:19:05.060Z,8.06
2019-03-25T18:24:07.622Z,8.21
2019-03-25T18:29:18.696Z,7.96
2019-03-25T18:34:33.827Z,7.95
2019-03-25T18:39:36.170Z,7.98
2019-03-25T18:44:40.214Z,7.90
2019-03-25T18:49:42.852Z,7.85
2019-03-25T18:54:47.326Z,7.75
2019-03-25T18:59:49.934Z,7.66
2019-03-25T19:04:52.747Z,7.66
2019-03-25T19:09:55.734Z,7.60
2019-03-25T19:14:58.085Z,7.42
2019-03-25T19:20:04.938Z,7.28
2019-03-25T19:25:13.344Z,7.17
2019-03-25T19:30:15.894Z,7.10
2019-03-25T19:35:19.611Z,7.18
2019-03-25T19:40:22.516Z,7.23
2019-03-25T19:45:25.403Z,7.22
2019-03-25T19:50:28.284Z,7.31
2019-03-25T19:55:31.161Z,7.33
2019-03-25T20:00:37.273Z,7.08
2019-03-25T20:05:40.211Z,7.29
2019-03-25T20:10:43.260Z,7.25
2019-03-25T20:15:47.002Z,7.22
2019-03-25T20:20:49.612Z,7.23
2019-03-25T20:25:52.513Z,7.28
2019-03-25T20:30:55.799Z,7.28
2019-03-25T20:35:59.056Z,7.27
2019-03-25T20:41:04.539Z,7.16
2019-03-25T20:46:06.777Z,7.18
2019-03-25T20:51:09.143Z,7.28
2019-03-25T20:56:11.516Z,7.35
2019-03-25T21:01:13.793Z,7.32
2019-03-25T21:06:16.208Z,7.39
2019-03-25T21:11:25.333Z,7.41
2019-03-25T21:16:27.952Z,7.43
2019-03-25T21:21:30.585Z,7.44
2019-03-25T21:26:33.247Z,7.43
2019-03-25T21:31:39.029Z,7.45
2019-03-25T21:36:40.970Z,7.42
2019-03-25T21:41:44.252Z,7.35
2019-03-25T21:46:46.544Z,7.37
2019-03-25T21:51:49.027Z,7.38
2019-03-25T21:56:53.367Z,7.37
2019-03-25T22:01:56.237Z,7.38
2019-03-25T22:06:58.579Z,7.34
2019-03-25T22:12:01.308Z,7.33
2019-03-25T22:17:04.219Z,7.27
2019-03-25T22:22:08.379Z,7.29
2019-03-25T22:27:10.615Z,7.31
2019-03-25T22:32:13.032Z,7.33
2019-03-25T22:37:15.480Z,7.32
2019-03-25T22:42:18.008Z,7.33
2019-03-25T22:47:20.273Z,7.32
2019-03-25T22:52:22.680Z,7.32
2019-03-25T22:57:25.254Z,7.31
2019-03-25T23:02:27.530Z,7.30
2019-03-25T23:07:29.943Z,7.31
2019-03-25T23:12:32.268Z,7.29
2019-03-25T23:17:35.277Z,7.27
2019-03-25T23:22:37.981Z,7.23
2019-03-25T23:27:40.257Z,7.25
2019-03-25T23:32:42.508Z,7.25
2019-03-25T23:37:44.806Z,7.24
2019-03-25T23:42:50.499Z,7.19
2019-03-25T23:47:52.811Z,7.17
2019-03-25T23:52:55.488Z,7.14
2019-03-25T23:57:57.829Z,7.17
